createdAt,value
2023-04-09T00:00:26.154Z,63.45
2023-04-09T00:03:27.790Z,63.56
2023-04-09T00:06:29.647Z,63.74
2023-04-09T00:09:32.091Z,63.85
2023-04-09T00:12:33.718Z,63.88
2023-04-09T00:15:35.385Z,63.83
2023-04-09T00:18:36.974Z,63.81
2023-04-09T00:21:38.652Z,63.74
2023-04-09T00:24:40.515Z,63.66
2023-04-09T00:27:42.110Z,63.63
2023-04-09T00:30:43.897Z,63.54
2023-04-09T00:33:45.603Z,63.52
2023-04-09T00:36:47.210Z,63.51
2023-04-09T00:39:48.844Z,63.43
2023-04-09T00:42:50.724Z,63.37
2023-04-09T00:45:52.391Z,63.19
2023-04-09T00:48:54.823Z,63.20
2023-04-09T00:51:56.631Z,63.32
2023-04-09T00:54:59.753Z,63.33
2023-04-09T00:58:01.813Z,63.44
2023-04-09T01:01:03.728Z,63.51
2023-04-09T01:04:05.525Z,63.75
2023-04-09T01:07:20.424Z,63.83
2023-04-09T01:10:46.710Z,64.00
2023-04-09T01:13:55.776Z,64.13
2023-04-09T01:17:01.030Z,64.38
2023-04-09T01:20:31.752Z,64.44
2023-04-09T01:23:45.644Z,64.31
2023-04-09T01:26:51.428Z,64.38
2023-04-09T01:29:53.681Z,64.28
2023-04-09T01:32:55.761Z,64.31
2023-04-09T01:35:57.979Z,64.36
2023-04-09T01:39:01.685Z,64.34
2023-04-09T01:42:03.975Z,64.40
2023-04-09T01:45:06.453Z,64.40
2023-04-09T01:48:08.461Z,64.63
2023-04-09T01:51:10.378Z,64.71
2023-04-09T01:54:12.020Z,64.87
2023-04-09T01:57:13.634Z,64.96
2023-04-09T02:00:15.751Z,65.07
2023-04-09T02:03:22.294Z,65.19
2023-04-09T02:06:48.940Z,65.30
2023-04-09T02:09:51.430Z,65.51
2023-04-09T02:12:54.611Z,65.49
2023-04-09T02:15:56.665Z,65.43
2023-04-09T02:19:01.257Z,65.44
2023-04-09T02:22:04.732Z,65.32
2023-04-09T02:25:06.979Z,65.23
2023-04-09T02:28:08.528Z,65.19
2023-04-09T02:31:11.412Z,65.07
2023-04-09T02:34:13.052Z,65.15
2023-04-09T02:37:14.707Z,65.07
2023-04-09T02:40:16.306Z,64.98
2023-04-09T02:43:18.004Z,65.11
2023-04-09T02:46:19.694Z,65.04
2023-04-09T02:49:21.360Z,65.09
2023-04-09T02:52:25.999Z,65.26
2023-04-09T02:55:27.704Z,65.39
2023-04-09T02:58:29.440Z,65.44
2023-04-09T03:01:31.343Z,65.44
2023-04-09T03:04:32.969Z,65.42
2023-04-09T03:07:34.633Z,65.39
2023-04-09T03:10:36.209Z,65.44
2023-04-09T03:13:37.932Z,65.45
2023-04-09T03:16:39.603Z,65.44
2023-04-09T03:19:41.302Z,65.71
2023-04-09T03:22:43.366Z,65.61
2023-04-09T03:26:06.318Z,65.70
2023-04-09T03:29:21.097Z,65.72
2023-04-09T03:32:23.047Z,65.68
2023-04-09T03:35:24.997Z,65.86
2023-04-09T03:38:30.391Z,65.81
2023-04-09T03:41:33.994Z,65.80
2023-04-09T03:44:38.469Z,65.69
2023-04-09T03:47:43.393Z,65.58
2023-04-09T03:50:46.103Z,65.57
2023-04-09T03:53:49.326Z,65.41
2023-04-09T03:56:51.198Z,65.31
2023-04-09T03:59:55.961Z,65.31
2023-04-09T04:02:58.259Z,65.38
2023-04-09T04:06:17.667Z,65.34
2023-04-09T04:09:39.475Z,65.23
2023-04-09T04:12:45.970Z,65.23
2023-04-09T04:15:56.862Z,65.26
2023-04-09T04:18:59.029Z,65.30
2023-04-09T04:22:02.550Z,65.29
2023-04-09T04:25:07.581Z,65.32
2023-04-09T04:28:09.727Z,65.38
2023-04-09T04:31:14.933Z,65.23
2023-04-09T04:34:16.673Z,65.39
2023-04-09T04:37:21.340Z,65.25
2023-04-09T04:40:24.038Z,65.08
2023-04-09T04:43:31.310Z,65.13
2023-04-09T04:46:33.415Z,65.08
2023-04-09T04:49:35.111Z,64.98
2023-04-09T04:52:38.946Z,64.77
2023-04-09T04:55:41.013Z,64.72
2023-04-09T04:58:44.652Z,64.69
2023-04-09T05:01:46.559Z,64.67
2023-04-09T05:04:48.498Z,64.90
2023-04-09T05:07:51.750Z,64.90
2023-04-09T05:10:56.233Z,64.74
2023-04-09T05:13:59.511Z,64.79
2023-04-09T05:17:01.288Z,64.81
2023-04-09T05:20:09.703Z,64.76
2023-04-09T05:23:20.109Z,64.43
2023-04-09T05:26:23.076Z,64.30
2023-04-09T05:29:28.312Z,64.05
2023-04-09T05:32:30.046Z,63.95
2023-04-09T05:35:32.625Z,63.78
2023-04-09T05:38:34.830Z,63.77
2023-04-09T05:41:38.693Z,63.66
2023-04-09T05:45:00.875Z,63.50
2023-04-09T05:48:03.060Z,63.25
2023-04-09T05:51:04.763Z,63.14
2023-04-09T05:54:06.684Z,63.12
2023-04-09T05:57:11.357Z,62.86
2023-04-09T06:00:15.321Z,62.83
2023-04-09T06:03:21.033Z,62.56
2023-04-09T06:06:22.693Z,62.47
2023-04-09T06:09:24.340Z,62.32
2023-04-09T06:12:26.013Z,62.17
2023-04-09T06:15:28.112Z,62.15
2023-04-09T06:18:29.831Z,62.06
2023-04-09T06:21:31.514Z,61.91
2023-04-09T06:24:33.404Z,61.91
2023-04-09T06:30:53.613Z,61.67
2023-04-09T06:33:55.942Z,61.58
2023-04-09T06:36:57.960Z,61.51
2023-04-09T06:40:01.384Z,61.44
2023-04-09T06:43:03.638Z,61.45
2023-04-09T06:46:13.712Z,61.18
2023-04-09T06:49:15.448Z,61.17
2023-04-09T06:52:17.029Z,60.87
2023-04-09T06:55:18.819Z,60.67
2023-04-09T06:58:21.296Z,60.50
2023-04-09T07:01:22.958Z,60.18
2023-04-09T07:04:24.834Z,60.17
2023-04-09T07:07:26.547Z,60.03
2023-04-09T07:10:28.176Z,59.83
2023-04-09T07:13:29.758Z,59.73
2023-04-09T07:16:31.446Z,59.62
2023-04-09T07:19:33.119Z,59.36
2023-04-09T07:22:36.376Z,59.33
2023-04-09T07:25:38.069Z,59.12
2023-04-09T07:28:39.974Z,59.01
2023-04-09T07:31:41.685Z,58.88
2023-04-09T07:34:44.261Z,58.76
2023-04-09T07:37:46.381Z,58.50
2023-04-09T07:40:48.693Z,58.24
2023-04-09T07:43:50.505Z,57.98
2023-04-09T07:46:52.168Z,57.95
2023-04-09T07:49:53.737Z,57.73
2023-04-09T07:52:55.528Z,57.59
2023-04-09T07:55:57.162Z,57.40
2023-04-09T07:58:58.809Z,57.17
2023-04-09T08:02:00.561Z,57.05
2023-04-09T08:05:02.632Z,56.87
2023-04-09T08:08:05.413Z,56.68
2023-04-09T08:11:07.280Z,56.53
2023-04-09T08:14:13.010Z,56.48
2023-04-09T08:17:14.688Z,56.11
2023-04-09T08:20:17.212Z,55.87
2023-04-09T08:23:18.902Z,55.70
2023-04-09T08:26:20.413Z,55.44
2023-04-09T08:29:22.045Z,55.25
2023-04-09T08:32:23.695Z,55.12
2023-04-09T08:35:25.411Z,54.83
2023-04-09T08:38:27.361Z,54.47
2023-04-09T08:41:29.589Z,54.35
2023-04-09T08:44:31.287Z,54.20
2023-04-09T08:47:33.871Z,53.93
2023-04-09T08:50:36.064Z,53.63
2023-04-09T08:53:38.823Z,53.35
2023-04-09T08:56:40.439Z,53.07
2023-04-09T08:59:42.013Z,52.83
2023-04-09T09:03:04.421Z,52.54
2023-04-09T09:06:06.512Z,52.26
2023-04-09T09:09:10.117Z,52.09
2023-04-09T09:12:11.689Z,51.69
2023-04-09T09:15:29.929Z,51.51
2023-04-09T09:18:43.072Z,51.24
2023-04-09T09:21:56.302Z,50.84
2023-04-09T09:24:57.859Z,50.51
2023-04-09T09:28:08.380Z,50.26
2023-04-09T09:31:12.900Z,50.01
2023-04-09T09:34:17.121Z,49.80
2023-04-09T09:37:28.441Z,49.58
2023-04-09T09:40:30.097Z,49.31
2023-04-09T09:43:42.270Z,49.01
2023-04-09T09:46:44.166Z,48.69
2023-04-09T09:49:48.419Z,48.34
2023-04-09T09:52:51.196Z,48.16
2023-04-09T09:55:53.885Z,47.97
2023-04-09T09:59:22.218Z,48.02
2023-04-09T10:02:24.749Z,47.85
2023-04-09T10:05:27.883Z,47.57
2023-04-09T10:08:30.790Z,47.31
2023-04-09T10:11:37.564Z,47.26
2023-04-09T10:14:40.471Z,47.05
2023-04-09T10:17:42.069Z,47.04
2023-04-09T10:20:53.053Z,46.65
2023-04-09T10:23:55.642Z,46.36
2023-04-09T10:27:09.745Z,46.70
2023-04-09T10:30:32.006Z,46.31
2023-04-09T10:33:34.438Z,46.24
2023-04-09T10:36:36.550Z,46.01
2023-04-09T10:39:45.085Z,45.93
2023-04-09T10:42:47.557Z,45.82
2023-04-09T10:45:53.573Z,45.71
2023-04-09T10:49:18.206Z,45.35
2023-04-09T10:52:30.290Z,44.81
2023-04-09T10:55:40.549Z,44.84
2023-04-09T10:58:42.141Z,44.79
2023-04-09T11:01:53.612Z,44.81
2023-04-09T11:05:42.628Z,44.66
2023-04-09T11:08:44.418Z,44.55
2023-04-09T11:11:53.261Z,44.55
2023-04-09T11:14:54.839Z,44.52
2023-04-09T11:17:57.832Z,44.46
2023-04-09T11:21:01.316Z,44.18
2023-04-09T11:24:02.971Z,44.16
2023-04-09T11:27:05.516Z,44.15
2023-04-09T11:30:07.938Z,44.20
2023-04-09T11:33:09.748Z,44.19
2023-04-09T11:36:11.390Z,44.02
2023-04-09T11:39:13.093Z,43.84
2023-04-09T11:42:15.667Z,43.83
2023-04-09T11:45:18.147Z,43.85
2023-04-09T11:48:21.840Z,43.85
2023-04-09T11:51:23.602Z,43.79
2023-04-09T11:54:25.791Z,43.82
2023-04-09T11:57:38.420Z,43.75
2023-04-09T12:00:43.194Z,43.86
2023-04-09T12:03:44.937Z,43.79
2023-04-09T12:06:46.699Z,43.70
2023-04-09T12:09:49.040Z,43.86
2023-04-09T12:12:50.595Z,43.73
2023-04-09T12:15:52.668Z,43.79
2023-04-09T12:18:55.873Z,44.10
2023-04-09T12:21:58.537Z,44.39
2023-04-09T12:25:00.558Z,44.43
2023-04-09T12:28:03.331Z,44.50
2023-04-09T12:31:05.024Z,44.54
2023-04-09T12:34:06.884Z,44.51
2023-04-09T12:37:08.538Z,44.33
2023-04-09T12:40:11.983Z,44.10
2023-04-09T12:43:13.653Z,43.86
2023-04-09T12:46:15.848Z,43.75
2023-04-09T12:49:18.375Z,43.34
2023-04-09T12:52:20.079Z,43.35
2023-04-09T12:55:22.331Z,43.26
2023-04-09T12:58:24.293Z,43.13
2023-04-09T13:01:26.022Z,43.11
2023-04-09T13:04:27.904Z,42.74
2023-04-09T13:07:29.846Z,42.44
2023-04-09T13:10:31.407Z,42.16
2023-04-09T13:13:33.646Z,41.94
2023-04-09T13:16:35.228Z,41.66
2023-04-09T13:19:36.809Z,41.53
2023-04-09T13:22:38.440Z,41.45
2023-04-09T13:25:40.073Z,41.23
2023-04-09T13:28:41.791Z,41.00
2023-04-09T13:31:43.353Z,40.63
2023-04-09T13:34:44.910Z,40.64
2023-04-09T13:37:46.499Z,40.70
2023-04-09T13:40:48.206Z,40.52
2023-04-09T13:43:49.777Z,40.45
2023-04-09T13:46:51.490Z,40.36
2023-04-09T13:49:53.306Z,40.20
2023-04-09T13:52:54.912Z,40.10
2023-04-09T13:55:56.521Z,39.91
2023-04-09T13:58:58.084Z,39.82
2023-04-09T14:01:59.755Z,39.64
2023-04-09T14:05:03.704Z,39.50
2023-04-09T14:08:06.139Z,39.24
2023-04-09T14:11:08.208Z,38.74
2023-04-09T14:14:10.707Z,38.50
2023-04-09T14:17:12.319Z,38.60
2023-04-09T14:20:13.957Z,38.36
2023-04-09T14:23:15.568Z,38.28
2023-04-09T14:26:17.297Z,38.33
2023-04-09T14:29:19.712Z,38.14
2023-04-09T14:32:21.376Z,37.98
2023-04-09T14:35:23.378Z,37.79
2023-04-09T14:38:25.183Z,37.70
2023-04-09T14:41:26.852Z,37.65
2023-04-09T14:44:28.543Z,37.56
2023-04-09T14:47:30.527Z,37.64
2023-04-09T14:50:33.954Z,37.75
2023-04-09T14:53:36.384Z,38.04
2023-04-09T14:56:37.978Z,38.53
2023-04-09T14:59:39.594Z,39.10
2023-04-09T15:02:41.604Z,39.77
2023-04-09T15:05:43.568Z,40.11
2023-04-09T15:08:45.524Z,40.54
2023-04-09T15:11:47.193Z,40.99
2023-04-09T15:14:48.709Z,41.33
2023-04-09T15:17:50.702Z,41.62
2023-04-09T15:20:52.289Z,41.89
2023-04-09T15:23:53.941Z,42.34
2023-04-09T15:26:56.856Z,42.73
2023-04-09T15:29:58.513Z,42.57
2023-04-09T15:33:00.509Z,42.85
2023-04-09T15:36:02.202Z,43.12
2023-04-09T15:39:04.482Z,43.67
2023-04-09T15:42:08.761Z,44.37
2023-04-09T15:45:11.746Z,45.08
2023-04-09T15:48:13.404Z,45.71
2023-04-09T15:51:15.022Z,46.08
2023-04-09T15:54:16.670Z,46.59
2023-04-09T15:57:19.411Z,46.93
2023-04-09T16:00:21.241Z,47.38
2023-04-09T16:03:22.966Z,47.83
2023-04-09T16:06:24.776Z,48.19
2023-04-09T16:09:26.539Z,48.62
2023-04-09T16:12:28.115Z,48.82
2023-04-09T16:15:29.748Z,49.03
2023-04-09T16:18:31.369Z,49.13
2023-04-09T16:21:33.373Z,49.35
2023-04-09T16:24:35.012Z,49.66
2023-04-09T16:27:36.647Z,49.88
2023-04-09T16:30:38.333Z,50.14
2023-04-09T16:33:39.944Z,50.42
2023-04-09T16:36:41.829Z,50.55
2023-04-09T16:39:43.421Z,50.64
2023-04-09T16:42:45.076Z,50.76
2023-04-09T16:45:46.717Z,50.88
2023-04-09T16:48:48.358Z,50.92
2023-04-09T16:51:51.941Z,51.04
2023-04-09T16:54:53.577Z,51.10
2023-04-09T16:57:56.794Z,51.23
2023-04-09T17:00:59.293Z,51.16
2023-04-09T17:04:03.081Z,51.15
2023-04-09T17:07:04.854Z,51.09
2023-04-09T17:10:07.102Z,51.08
2023-04-09T17:13:08.849Z,51.07
2023-04-09T17:16:11.883Z,51.03
2023-04-09T17:19:13.913Z,51.01
2023-04-09T17:22:17.803Z,51.04
2023-04-09T17:25:20.474Z,50.99
2023-04-09T17:28:22.122Z,51.01
2023-04-09T17:31:24.205Z,50.96
2023-04-09T17:34:26.230Z,51.04
2023-04-09T17:37:28.907Z,51.02
2023-04-09T17:40:30.481Z,51.12
2023-04-09T17:43:32.087Z,50.95
2023-04-09T17:46:33.743Z,50.87
2023-04-09T17:49:35.639Z,50.82
2023-04-09T17:52:37.530Z,50.91
2023-04-09T17:55:39.234Z,50.83
2023-04-09T17:58:41.359Z,51.02
2023-04-09T18:01:43.049Z,50.90
2023-04-09T18:04:44.895Z,50.88
2023-04-09T18:07:47.030Z,50.90
2023-04-09T18:10:58.885Z,50.83
2023-04-09T18:14:12.892Z,50.84
2023-04-09T18:17:16.249Z,50.92
2023-04-09T18:20:18.166Z,50.88
2023-04-09T18:23:19.848Z,50.83
2023-04-09T18:26:21.413Z,50.93
2023-04-09T18:29:22.976Z,50.89
2023-04-09T18:32:25.303Z,50.97
2023-04-09T18:35:27.062Z,51.02
2023-04-09T18:38:31.689Z,51.00
2023-04-09T18:41:33.269Z,51.06
2023-04-09T18:44:37.212Z,51.13
2023-04-09T18:47:39.006Z,51.21
2023-04-09T18:50:41.035Z,51.20
2023-04-09T18:53:42.694Z,51.34
2023-04-09T18:56:46.583Z,51.39
2023-04-09T18:59:48.251Z,51.42
2023-04-09T19:02:50.154Z,51.47
2023-04-09T19:05:52.011Z,51.51
2023-04-09T19:08:58.836Z,51.62
2023-04-09T19:12:02.019Z,51.66
2023-04-09T19:15:04.870Z,51.66
2023-04-09T19:18:06.992Z,51.75
2023-04-09T19:21:09.086Z,51.85
2023-04-09T19:24:10.829Z,51.91
2023-04-09T19:27:13.252Z,51.94
2023-04-09T19:30:14.865Z,52.04
2023-04-09T19:33:16.583Z,52.03
2023-04-09T19:36:18.197Z,52.12
2023-04-09T19:39:19.983Z,52.14
2023-04-09T19:42:21.546Z,52.25
2023-04-09T19:45:23.198Z,52.31
2023-04-09T19:48:24.780Z,52.41
2023-04-09T19:51:27.385Z,52.61
2023-04-09T19:54:29.012Z,52.86
2023-04-09T19:57:31.945Z,53.10
2023-04-09T20:00:34.633Z,53.23
2023-04-09T20:03:36.399Z,53.44
2023-04-09T20:06:38.039Z,53.62
2023-04-09T20:09:42.425Z,53.73
2023-04-09T20:12:47.520Z,53.93
2023-04-09T20:15:50.128Z,54.11
2023-04-09T20:18:51.958Z,54.18
2023-04-09T20:21:54.858Z,54.29
2023-04-09T20:24:56.730Z,54.53
2023-04-09T20:27:58.352Z,54.66
2023-04-09T20:31:03.033Z,54.79
2023-04-09T20:34:04.620Z,54.80
2023-04-09T20:37:06.716Z,54.80
2023-04-09T20:40:08.734Z,54.84
2023-04-09T20:43:10.460Z,54.92
2023-04-09T20:46:12.450Z,54.97
2023-04-09T20:49:14.270Z,54.97
2023-04-09T20:52:16.022Z,54.91
2023-04-09T20:55:17.947Z,54.99
2023-04-09T20:58:20.444Z,54.88
2023-04-09T21:01:22.272Z,54.95
2023-04-09T21:04:25.568Z,55.02
2023-04-09T21:07:29.108Z,55.01
2023-04-09T21:10:31.181Z,55.03
2023-04-09T21:13:40.541Z,54.98
2023-04-09T21:16:48.564Z,55.03
2023-04-09T21:19:51.678Z,55.05
2023-04-09T21:22:54.282Z,55.06
2023-04-09T21:25:55.952Z,54.97
2023-04-09T21:28:57.627Z,54.91
2023-04-09T21:32:00.546Z,54.88
2023-04-09T21:35:02.204Z,54.85
2023-04-09T21:38:03.922Z,54.83
2023-04-09T21:41:05.649Z,54.75
2023-04-09T21:44:09.888Z,54.85
2023-04-09T21:47:12.290Z,54.84
2023-04-09T21:50:14.670Z,54.71
2023-04-09T21:53:16.591Z,54.74
2023-04-09T21:56:18.209Z,54.81
2023-04-09T21:59:22.963Z,54.64
2023-04-09T22:02:24.888Z,54.58
2023-04-09T22:05:30.604Z,54.62
2023-04-09T22:08:33.367Z,54.61
2023-04-09T22:11:35.748Z,54.55
2023-04-09T22:14:38.548Z,54.56
2023-04-09T22:17:41.630Z,54.49
2023-04-09T22:20:43.303Z,54.48
2023-04-09T22:23:44.938Z,54.52
2023-04-09T22:26:46.938Z,54.61
2023-04-09T22:29:48.511Z,54.46
2023-04-09T22:32:51.568Z,54.48
2023-04-09T22:35:53.773Z,54.42
2023-04-09T22:38:55.612Z,54.58
2023-04-09T22:41:58.416Z,54.51
2023-04-09T22:45:00.036Z,54.52
2023-04-09T22:48:01.874Z,54.72
2023-04-09T22:51:03.612Z,54.69
2023-04-09T22:54:05.764Z,54.55
2023-04-09T22:57:07.371Z,54.65
2023-04-09T23:00:09.233Z,54.55
2023-04-09T23:03:10.904Z,54.65
2023-04-09T23:06:12.590Z,54.69
2023-04-09T23:09:14.146Z,54.70
2023-04-09T23:12:16.095Z,54.93
2023-04-09T23:15:17.858Z,54.90
2023-04-09T23:18:19.467Z,54.98
2023-04-09T23:21:21.188Z,54.93
2023-04-09T23:24:22.807Z,55.12
2023-04-09T23:27:28.452Z,55.24
2023-04-09T23:30:30.323Z,55.26
2023-04-09T23:33:32.661Z,55.37
2023-04-09T23:36:34.249Z,55.48
2023-04-09T23:39:35.910Z,55.55
2023-04-09T23:42:37.505Z,55.62
2023-04-09T23:45:39.110Z,55.79
2023-04-09T23:48:40.776Z,55.90
2023-04-09T23:51:42.312Z,56.20
2023-04-09T23:54:53.396Z,56.29
2023-04-09T23:57:54.970Z,56.43
